sensor_id;sensor_type;location;lat;lon;timestamp;P1;durP1;ratioP1;P2;durP2;ratioP2
21758;SDS011;11041;50.854;20.580;2022-08-16T00:01:55;22.13;;;19.90;;
21758;SDS011;11041;50.854;20.580;2022-08-16T00:04:22;20.30;;;18.13;;
21758;SDS011;11041;50.854;20.580;2022-08-16T00:06:49;21.42;;;19.23;;
21758;SDS011;11041;50.854;20.580;2022-08-16T00:09:16;23.60;;;18.63;;
21758;SDS011;11041;50.854;20.580;2022-08-16T00:11:43;22.50;;;20.13;;
21758;SDS011;11041;50.854;20.580;2022-08-16T00:14:13;21.75;;;19.02;;
21758;SDS011;11041;50.854;20.580;2022-08-16T00:16:45;21.50;;;19.27;;
21758;SDS011;11041;50.854;20.580;2022-08-16T00:19:14;22.30;;;18.98;;
21758;SDS011;11041;50.854;20.580;2022-08-16T00:21:46;22.90;;;20.52;;
21758;SDS011;11041;50.854;20.580;2022-08-16T00:24:12;22.73;;;19.45;;
21758;SDS011;11041;50.854;20.580;2022-08-16T00:26:41;21.48;;;19.38;;
21758;SDS011;11041;50.854;20.580;2022-08-16T00:29:10;20.98;;;18.90;;
21758;SDS011;11041;50.854;20.580;2022-08-16T00:31:39;22.88;;;20.52;;
21758;SDS011;11041;50.854;20.580;2022-08-16T00:34:07;25.05;;;20.05;;
21758;SDS011;11041;50.854;20.580;2022-08-16T00:36:33;21.65;;;19.35;;
21758;SDS011;11041;50.854;20.580;2022-08-16T00:39:00;23.00;;;20.25;;
21758;SDS011;11041;50.854;20.580;2022-08-16T00:41:27;20.75;;;18.52;;
21758;SDS011;11041;50.854;20.580;2022-08-16T00:43:59;20.77;;;18.55;;
21758;SDS011;11041;50.854;20.580;2022-08-16T00:49:31;22.98;;;20.40;;
21758;SDS011;11041;50.854;20.580;2022-08-16T00:52:00;21.27;;;19.00;;
21758;SDS011;11041;50.854;20.580;2022-08-16T00:54:28;19.60;;;17.65;;
21758;SDS011;11041;50.854;20.580;2022-08-16T00:56:57;21.50;;;19.20;;
21758;SDS011;11041;50.854;20.580;2022-08-16T00:59:30;21.65;;;18.38;;
21758;SDS011;11041;50.854;20.580;2022-08-16T01:02:01;19.95;;;17.95;;
21758;SDS011;11041;50.854;20.580;2022-08-16T01:04:31;21.23;;;18.98;;
21758;SDS011;11041;50.854;20.580;2022-08-16T01:06:59;18.98;;;17.13;;
21758;SDS011;11041;50.854;20.580;2022-08-16T01:09:30;19.15;;;17.27;;
21758;SDS011;11041;50.854;20.580;2022-08-16T01:12:01;20.67;;;18.50;;
21758;SDS011;11041;50.854;20.580;2022-08-16T01:14:34;20.25;;;18.17;;
21758;SDS011;11041;50.854;20.580;2022-08-16T01:17:11;22.27;;;19.98;;
21758;SDS011;11041;50.854;20.580;2022-08-16T01:23:22;21.20;;;18.95;;
21758;SDS011;11041;50.854;20.580;2022-08-16T01:26:00;23.10;;;19.58;;
21758;SDS011;11041;50.854;20.580;2022-08-16T01:28:27;24.35;;;19.75;;
21758;SDS011;11041;50.854;20.580;2022-08-16T01:30:55;22.95;;;20.52;;
21758;SDS011;11041;50.854;20.580;2022-08-16T01:33:24;22.42;;;20.10;;
21758;SDS011;11041;50.854;20.580;2022-08-16T01:35:57;23.08;;;20.70;;
21758;SDS011;11041;50.854;20.580;2022-08-16T01:38:32;22.50;;;20.23;;
21758;SDS011;11041;50.854;20.580;2022-08-16T01:41:06;23.90;;;19.67;;
21758;SDS011;11041;50.854;20.580;2022-08-16T01:43:45;23.33;;;20.60;;
21758;SDS011;11041;50.854;20.580;2022-08-16T01:46:34;20.83;;;18.65;;
21758;SDS011;11041;50.854;20.580;2022-08-16T01:49:25;21.95;;;19.63;;
21758;SDS011;11041;50.854;20.580;2022-08-16T01:51:59;20.73;;;18.73;;
21758;SDS011;11041;50.854;20.580;2022-08-16T01:54:33;22.63;;;20.40;;
21758;SDS011;11041;50.854;20.580;2022-08-16T01:57:02;22.27;;;19.48;;
21758;SDS011;11041;50.854;20.580;2022-08-16T01:59:29;22.45;;;19.75;;
21758;SDS011;11041;50.854;20.580;2022-08-16T02:01:58;22.58;;;19.92;;
21758;SDS011;11041;50.854;20.580;2022-08-16T02:04:26;22.25;;;19.95;;
21758;SDS011;11041;50.854;20.580;2022-08-16T02:06:54;20.95;;;18.75;;
21758;SDS011;11041;50.854;20.580;2022-08-16T02:09:21;20.27;;;18.23;;
21758;SDS011;11041;50.854;20.580;2022-08-16T02:11:54;20.70;;;18.52;;
21758;SDS011;11041;50.854;20.580;2022-08-16T02:14:25;20.30;;;18.02;;
21758;SDS011;11041;50.854;20.580;2022-08-16T02:16:55;22.05;;;18.98;;
21758;SDS011;11041;50.854;20.580;2022-08-16T02:19:26;20.20;;;18.15;;
21758;SDS011;11041;50.854;20.580;2022-08-16T02:21:56;23.10;;;18.77;;
21758;SDS011;11041;50.854;20.580;2022-08-16T02:24:24;22.35;;;20.02;;
21758;SDS011;11041;50.854;20.580;2022-08-16T02:26:51;22.08;;;19.77;;
21758;SDS011;11041;50.854;20.580;2022-08-16T02:29:19;21.67;;;19.42;;
21758;SDS011;11041;50.854;20.580;2022-08-16T02:31:46;22.45;;;20.05;;
21758;SDS011;11041;50.854;20.580;2022-08-16T02:34:15;23.98;;;21.38;;
21758;SDS011;11041;50.854;20.580;2022-08-16T02:36:45;23.02;;;20.65;;
21758;SDS011;11041;50.854;20.580;2022-08-16T02:39:13;24.35;;;21.70;;
21758;SDS011;11041;50.854;20.580;2022-08-16T02:41:41;21.33;;;18.85;;
21758;SDS011;11041;50.854;20.580;2022-08-16T02:44:11;21.77;;;19.52;;
21758;SDS011;11041;50.854;20.580;2022-08-16T04:22:39;23.15;;;19.00;;
21758;SDS011;11041;50.854;20.580;2022-08-16T04:25:09;22.52;;;20.23;;
21758;SDS011;11041;50.854;20.580;2022-08-16T04:27:38;24.38;;;20.92;;
21758;SDS011;11041;50.854;20.580;2022-08-16T04:30:07;22.38;;;20.10;;
21758;SDS011;11041;50.854;20.580;2022-08-16T04:32:39;22.73;;;20.40;;
21758;SDS011;11041;50.854;20.580;2022-08-16T04:35:08;24.60;;;20.60;;
21758;SDS011;11041;50.854;20.580;2022-08-16T04:37:38;22.55;;;20.25;;
21758;SDS011;11041;50.854;20.580;2022-08-16T04:40:05;26.20;;;23.50;;
21758;SDS011;11041;50.854;20.580;2022-08-16T04:42:34;27.65;;;22.17;;
21758;SDS011;11041;50.854;20.580;2022-08-16T04:45:05;25.13;;;22.58;;
21758;SDS011;11041;50.854;20.580;2022-08-16T04:47:35;25.40;;;22.70;;
21758;SDS011;11041;50.854;20.580;2022-08-16T04:50:04;26.75;;;22.42;;
21758;SDS011;11041;50.854;20.580;2022-08-16T04:52:47;27.58;;;24.77;;
21758;SDS011;11041;50.854;20.580;2022-08-16T04:55:17;27.58;;;24.92;;
21758;SDS011;11041;50.854;20.580;2022-08-16T04:57:47;28.70;;;25.65;;
21758;SDS011;11041;50.854;20.580;2022-08-16T05:00:18;32.00;;;25.60;;
21758;SDS011;11041;50.854;20.580;2022-08-16T05:03:03;30.92;;;26.25;;
21758;SDS011;11041;50.854;20.580;2022-08-16T05:05:35;32.28;;;24.52;;
21758;SDS011;11041;50.854;20.580;2022-08-16T05:08:05;30.20;;;24.20;;
21758;SDS011;11041;50.854;20.580;2022-08-16T05:10:33;24.83;;;22.33;;
21758;SDS011;11041;50.854;20.580;2022-08-16T05:13:01;25.40;;;21.75;;
21758;SDS011;11041;50.854;20.580;2022-08-16T05:15:30;28.52;;;22.23;;
21758;SDS011;11041;50.854;20.580;2022-08-16T05:18:00;27.88;;;22.40;;
21758;SDS011;11041;50.854;20.580;2022-08-16T05:20:30;23.15;;;20.88;;
21758;SDS011;11041;50.854;20.580;2022-08-16T05:22:56;26.75;;;21.20;;
21758;SDS011;11041;50.854;20.580;2022-08-16T05:25:23;24.30;;;21.15;;
21758;SDS011;11041;50.854;20.580;2022-08-16T05:27:49;23.95;;;20.02;;
21758;SDS011;11041;50.854;20.580;2022-08-16T05:30:16;21.63;;;19.40;;
21758;SDS011;11041;50.854;20.580;2022-08-16T05:32:43;23.52;;;19.08;;
21758;SDS011;11041;50.854;20.580;2022-08-16T05:35:10;23.90;;;20.00;;
21758;SDS011;11041;50.854;20.580;2022-08-16T05:37:37;21.05;;;18.85;;
21758;SDS011;11041;50.854;20.580;2022-08-16T05:40:06;22.10;;;19.85;;
21758;SDS011;11041;50.854;20.580;2022-08-16T05:42:36;22.30;;;19.90;;
21758;SDS011;11041;50.854;20.580;2022-08-16T05:45:04;25.90;;;19.80;;
21758;SDS011;11041;50.854;20.580;2022-08-16T05:47:32;22.33;;;18.52;;
21758;SDS011;11041;50.854;20.580;2022-08-16T05:49:58;23.83;;;19.23;;
21758;SDS011;11041;50.854;20.580;2022-08-16T05:52:25;24.17;;;19.35;;
21758;SDS011;11041;50.854;20.580;2022-08-16T05:54:51;20.98;;;18.48;;
21758;SDS011;11041;50.854;20.580;2022-08-16T05:57:18;21.15;;;18.92;;
21758;SDS011;11041;50.854;20.580;2022-08-16T05:59:46;25.75;;;18.05;;
21758;SDS011;11041;50.854;20.580;2022-08-16T06:02:13;21.75;;;17.52;;
21758;SDS011;11041;50.854;20.580;2022-08-16T06:04:41;23.10;;;18.55;;
21758;SDS011;11041;50.854;20.580;2022-08-16T06:07:09;21.33;;;18.08;;
21758;SDS011;11041;50.854;20.580;2022-08-16T06:09:36;24.90;;;17.67;;
21758;SDS011;11041;50.854;20.580;2022-08-16T06:12:04;19.00;;;16.58;;
21758;SDS011;11041;50.854;20.580;2022-08-16T06:14:31;19.17;;;17.23;;
21758;SDS011;11041;50.854;20.580;2022-08-16T06:16:58;18.45;;;16.55;;
21758;SDS011;11041;50.854;20.580;2022-08-16T06:19:24;19.33;;;17.30;;
21758;SDS011;11041;50.854;20.580;2022-08-16T06:21:51;19.27;;;17.05;;
21758;SDS011;11041;50.854;20.580;2022-08-16T06:24:18;19.15;;;16.95;;
21758;SDS011;11041;50.854;20.580;2022-08-16T06:26:44;18.20;;;16.17;;
21758;SDS011;11041;50.854;20.580;2022-08-16T06:29:11;23.85;;;17.15;;
21758;SDS011;11041;50.854;20.580;2022-08-16T06:31:37;21.25;;;17.10;;
21758;SDS011;11041;50.854;20.580;2022-08-16T06:34:04;19.00;;;17.08;;
21758;SDS011;11041;50.854;20.580;2022-08-16T06:36:30;18.75;;;16.80;;
21758;SDS011;11041;50.854;20.580;2022-08-16T06:38:57;19.63;;;17.35;;
21758;SDS011;11041;50.854;20.580;2022-08-16T06:41:24;19.42;;;16.98;;
21758;SDS011;11041;50.854;20.580;2022-08-16T06:43:51;19.65;;;17.50;;
21758;SDS011;11041;50.854;20.580;2022-08-16T06:46:27;19.10;;;17.10;;
21758;SDS011;11041;50.854;20.580;2022-08-16T06:49:06;21.55;;;17.15;;
21758;SDS011;11041;50.854;20.580;2022-08-16T06:51:35;20.35;;;17.73;;
21758;SDS011;11041;50.854;20.580;2022-08-16T06:54:05;21.52;;;18.30;;
21758;SDS011;11041;50.854;20.580;2022-08-16T06:56:33;23.75;;;18.35;;
21758;SDS011;11041;50.854;20.580;2022-08-16T06:59:02;21.55;;;18.35;;
21758;SDS011;11041;50.854;20.580;2022-08-16T07:01:28;21.02;;;18.90;;
21758;SDS011;11041;50.854;20.580;2022-08-16T07:03:55;23.05;;;18.98;;
21758;SDS011;11041;50.854;20.580;2022-08-16T07:06:22;22.63;;;18.92;;
21758;SDS011;11041;50.854;20.580;2022-08-16T07:08:49;22.67;;;19.23;;
21758;SDS011;11041;50.854;20.580;2022-08-16T07:11:16;21.58;;;18.80;;
21758;SDS011;11041;50.854;20.580;2022-08-16T07:13:45;28.50;;;19.95;;
21758;SDS011;11041;50.854;20.580;2022-08-16T07:16:13;19.67;;;17.65;;
21758;SDS011;11041;50.854;20.580;2022-08-16T07:18:44;21.95;;;17.85;;
21758;SDS011;11041;50.854;20.580;2022-08-16T07:21:13;19.77;;;17.08;;
21758;SDS011;11041;50.854;20.580;2022-08-16T07:23:40;20.88;;;16.70;;
21758;SDS011;11041;50.854;20.580;2022-08-16T07:26:13;19.50;;;17.17;;
21758;SDS011;11041;50.854;20.580;2022-08-16T07:28:48;20.23;;;16.90;;
21758;SDS011;11041;50.854;20.580;2022-08-16T07:31:17;22.02;;;16.70;;
21758;SDS011;11041;50.854;20.580;2022-08-16T07:33:44;18.83;;;16.80;;
21758;SDS011;11041;50.854;20.580;2022-08-16T07:36:12;21.20;;;16.20;;
21758;SDS011;11041;50.854;20.580;2022-08-16T07:38:40;19.85;;;16.98;;
21758;SDS011;11041;50.854;20.580;2022-08-16T07:41:08;17.27;;;15.60;;
21758;SDS011;11041;50.854;20.580;2022-08-16T07:43:36;17.77;;;15.75;;
21758;SDS011;11041;50.854;20.580;2022-08-16T07:46:03;17.98;;;15.43;;
21758;SDS011;11041;50.854;20.580;2022-08-16T07:48:30;17.33;;;14.68;;
21758;SDS011;11041;50.854;20.580;2022-08-16T07:50:57;17.25;;;15.45;;
21758;SDS011;11041;50.854;20.580;2022-08-16T07:53:24;17.77;;;14.43;;
21758;SDS011;11041;50.854;20.580;2022-08-16T07:55:53;18.70;;;14.57;;
21758;SDS011;11041;50.854;20.580;2022-08-16T07:58:19;16.02;;;14.43;;
21758;SDS011;11041;50.854;20.580;2022-08-16T08:00:46;19.83;;;14.57;;
21758;SDS011;11041;50.854;20.580;2022-08-16T08:03:12;15.75;;;14.35;;
21758;SDS011;11041;50.854;20.580;2022-08-16T08:05:39;16.40;;;14.38;;
21758;SDS011;11041;50.854;20.580;2022-08-16T08:08:06;17.80;;;14.65;;
21758;SDS011;11041;50.854;20.580;2022-08-16T08:10:32;16.27;;;14.57;;
21758;SDS011;11041;50.854;20.580;2022-08-16T08:12:59;16.77;;;14.10;;
21758;SDS011;11041;50.854;20.580;2022-08-16T08:15:26;15.73;;;13.82;;
21758;SDS011;11041;50.854;20.580;2022-08-16T08:17:54;19.50;;;15.23;;
21758;SDS011;11041;50.854;20.580;2022-08-16T08:20:21;15.50;;;13.90;;
21758;SDS011;11041;50.854;20.580;2022-08-16T08:22:51;18.17;;;13.65;;
21758;SDS011;11041;50.854;20.580;2022-08-16T08:25:20;16.35;;;14.55;;
21758;SDS011;11041;50.854;20.580;2022-08-16T08:27:47;16.80;;;14.43;;
21758;SDS011;11041;50.854;20.580;2022-08-16T08:30:14;17.30;;;13.23;;
21758;SDS011;11041;50.854;20.580;2022-08-16T08:32:41;19.40;;;14.55;;
21758;SDS011;11041;50.854;20.580;2022-08-16T08:35:08;26.45;;;15.30;;
21758;SDS011;11041;50.854;20.580;2022-08-16T08:37:36;15.90;;;12.90;;
21758;SDS011;11041;50.854;20.580;2022-08-16T08:40:05;16.73;;;13.23;;
21758;SDS011;11041;50.854;20.580;2022-08-16T08:42:35;15.88;;;12.57;;
21758;SDS011;11041;50.854;20.580;2022-08-16T08:45:03;19.95;;;12.77;;
21758;SDS011;11041;50.854;20.580;2022-08-16T08:47:30;14.15;;;12.43;;
21758;SDS011;11041;50.854;20.580;2022-08-16T08:49:57;15.90;;;12.50;;
21758;SDS011;11041;50.854;20.580;2022-08-16T08:52:24;13.63;;;11.90;;
21758;SDS011;11041;50.854;20.580;2022-08-16T08:54:52;20.88;;;12.98;;
21758;SDS011;11041;50.854;20.580;2022-08-16T08:57:18;18.52;;;13.57;;
21758;SDS011;11041;50.854;20.580;2022-08-16T08:59:46;16.27;;;12.95;;
21758;SDS011;11041;50.854;20.580;2022-08-16T09:02:13;14.45;;;12.27;;
21758;SDS011;11041;50.854;20.580;2022-08-16T09:04:42;17.23;;;12.48;;
21758;SDS011;11041;50.854;20.580;2022-08-16T09:07:11;19.55;;;13.55;;
21758;SDS011;11041;50.854;20.580;2022-08-16T09:09:38;15.40;;;13.75;;
21758;SDS011;11041;50.854;20.580;2022-08-16T09:12:04;15.80;;;13.77;;
21758;SDS011;11041;50.854;20.580;2022-08-16T09:14:33;21.75;;;14.27;;
21758;SDS011;11041;50.854;20.580;2022-08-16T09:17:03;15.68;;;13.82;;
21758;SDS011;11041;50.854;20.580;2022-08-16T09:19:34;17.73;;;13.50;;
21758;SDS011;11041;50.854;20.580;2022-08-16T09:22:03;16.10;;;13.27;;
21758;SDS011;11041;50.854;20.580;2022-08-16T09:24:31;21.40;;;13.55;;
21758;SDS011;11041;50.854;20.580;2022-08-16T09:26:59;19.60;;;13.75;;
21758;SDS011;11041;50.854;20.580;2022-08-16T09:29:27;18.90;;;13.70;;
21758;SDS011;11041;50.854;20.580;2022-08-16T09:31:53;15.60;;;13.13;;
21758;SDS011;11041;50.854;20.580;2022-08-16T09:34:22;21.05;;;13.75;;
21758;SDS011;11041;50.854;20.580;2022-08-16T09:36:49;15.55;;;12.90;;
21758;SDS011;11041;50.854;20.580;2022-08-16T09:39:16;20.73;;;14.32;;
21758;SDS011;11041;50.854;20.580;2022-08-16T09:41:43;15.93;;;13.45;;
21758;SDS011;11041;50.854;20.580;2022-08-16T09:44:16;18.02;;;13.55;;
21758;SDS011;11041;50.854;20.580;2022-08-16T09:46:49;25.85;;;13.52;;
21758;SDS011;11041;50.854;20.580;2022-08-16T09:49:17;17.75;;;13.68;;
21758;SDS011;11041;50.854;20.580;2022-08-16T09:51:44;19.15;;;13.27;;
21758;SDS011;11041;50.854;20.580;2022-08-16T09:54:12;18.98;;;13.70;;
21758;SDS011;11041;50.854;20.580;2022-08-16T09:56:39;18.08;;;13.20;;
21758;SDS011;11041;50.854;20.580;2022-08-16T09:59:07;20.45;;;13.45;;
21758;SDS011;11041;50.854;20.580;2022-08-16T10:01:36;21.80;;;15.07;;
21758;SDS011;11041;50.854;20.580;2022-08-16T10:04:04;19.92;;;14.60;;
21758;SDS011;11041;50.854;20.580;2022-08-16T10:06:31;21.67;;;14.55;;
21758;SDS011;11041;50.854;20.580;2022-08-16T10:08:59;19.63;;;13.38;;
21758;SDS011;11041;50.854;20.580;2022-08-16T10:11:32;19.83;;;13.60;;
21758;SDS011;11041;50.854;20.580;2022-08-16T10:14:19;17.98;;;13.75;;
21758;SDS011;11041;50.854;20.580;2022-08-16T10:16:48;22.88;;;13.90;;
21758;SDS011;11041;50.854;20.580;2022-08-16T10:19:15;16.55;;;13.77;;
21758;SDS011;11041;50.854;20.580;2022-08-16T10:21:42;16.08;;;13.80;;
21758;SDS011;11041;50.854;20.580;2022-08-16T10:24:09;16.92;;;13.35;;
21758;SDS011;11041;50.854;20.580;2022-08-16T10:26:36;26.45;;;13.90;;
21758;SDS011;11041;50.854;20.580;2022-08-16T10:29:02;16.65;;;12.90;;
21758;SDS011;11041;50.854;20.580;2022-08-16T10:31:31;17.48;;;13.95;;
21758;SDS011;11041;50.854;20.580;2022-08-16T10:33:58;18.98;;;13.77;;
21758;SDS011;11041;50.854;20.580;2022-08-16T10:36:26;17.90;;;12.73;;
21758;SDS011;11041;50.854;20.580;2022-08-16T10:38:53;19.08;;;12.98;;
21758;SDS011;11041;50.854;20.580;2022-08-16T10:41:20;20.92;;;12.88;;
21758;SDS011;11041;50.854;20.580;2022-08-16T10:43:47;26.70;;;13.48;;
21758;SDS011;11041;50.854;20.580;2022-08-16T10:46:14;20.58;;;13.32;;
21758;SDS011;11041;50.854;20.580;2022-08-16T10:48:43;18.33;;;12.27;;
21758;SDS011;11041;50.854;20.580;2022-08-16T10:51:11;14.27;;;11.77;;
21758;SDS011;11041;50.854;20.580;2022-08-16T10:53:38;22.23;;;12.77;;
21758;SDS011;11041;50.854;20.580;2022-08-16T10:56:06;17.60;;;11.82;;
21758;SDS011;11041;50.854;20.580;2022-08-16T10:58:35;24.23;;;11.85;;
21758;SDS011;11041;50.854;20.580;2022-08-16T11:01:07;18.10;;;12.57;;
21758;SDS011;11041;50.854;20.580;2022-08-16T11:03:35;17.48;;;11.43;;
21758;SDS011;11041;50.854;20.580;2022-08-16T11:06:04;20.55;;;10.93;;
21758;SDS011;11041;50.854;20.580;2022-08-16T11:08:33;19.38;;;11.27;;
21758;SDS011;11041;50.854;20.580;2022-08-16T11:11:03;17.13;;;11.77;;
21758;SDS011;11041;50.854;20.580;2022-08-16T11:13:32;16.52;;;11.73;;
21758;SDS011;11041;50.854;20.580;2022-08-16T11:16:00;18.13;;;11.00;;
21758;SDS011;11041;50.854;20.580;2022-08-16T11:18:27;16.25;;;11.30;;
21758;SDS011;11041;50.854;20.580;2022-08-16T11:20:54;20.38;;;11.73;;
21758;SDS011;11041;50.854;20.580;2022-08-16T11:23:24;23.10;;;11.43;;
21758;SDS011;11041;50.854;20.580;2022-08-16T11:25:53;23.92;;;12.13;;
21758;SDS011;11041;50.854;20.580;2022-08-16T11:28:21;17.25;;;10.43;;
21758;SDS011;11041;50.854;20.580;2022-08-16T11:30:49;21.42;;;11.30;;
21758;SDS011;11041;50.854;20.580;2022-08-16T11:33:17;16.67;;;11.65;;
21758;SDS011;11041;50.854;20.580;2022-08-16T11:35:44;21.48;;;10.73;;
21758;SDS011;11041;50.854;20.580;2022-08-16T11:38:15;22.15;;;11.52;;
21758;SDS011;11041;50.854;20.580;2022-08-16T11:40:48;23.63;;;9.90;;
21758;SDS011;11041;50.854;20.580;2022-08-16T11:43:25;21.75;;;10.00;;
21758;SDS011;11041;50.854;20.580;2022-08-16T11:45:56;21.58;;;10.63;;
21758;SDS011;11041;50.854;20.580;2022-08-16T11:48:27;14.75;;;9.73;;
21758;SDS011;11041;50.854;20.580;2022-08-16T11:50:58;17.10;;;8.20;;
21758;SDS011;11041;50.854;20.580;2022-08-16T11:53:27;12.45;;;8.75;;
21758;SDS011;11041;50.854;20.580;2022-08-16T11:55:54;15.57;;;9.75;;
21758;SDS011;11041;50.854;20.580;2022-08-16T11:58:22;16.13;;;8.00;;
21758;SDS011;11041;50.854;20.580;2022-08-16T12:00:52;12.65;;;9.10;;
21758;SDS011;11041;50.854;20.580;2022-08-16T12:03:23;16.42;;;11.75;;
21758;SDS011;11041;50.854;20.580;2022-08-16T12:05:53;15.07;;;11.75;;
21758;SDS011;11041;50.854;20.580;2022-08-16T12:08:21;14.73;;;12.32;;
21758;SDS011;11041;50.854;20.580;2022-08-16T12:10:48;13.30;;;11.75;;
21758;SDS011;11041;50.854;20.580;2022-08-16T12:13:16;14.07;;;11.30;;
21758;SDS011;11041;50.854;20.580;2022-08-16T12:15:43;17.77;;;11.85;;
21758;SDS011;11041;50.854;20.580;2022-08-16T12:18:10;17.55;;;11.88;;
21758;SDS011;11041;50.854;20.580;2022-08-16T12:20:41;17.52;;;10.70;;
21758;SDS011;11041;50.854;20.580;2022-08-16T12:23:10;14.93;;;10.63;;
21758;SDS011;11041;50.854;20.580;2022-08-16T12:25:37;14.98;;;11.30;;
21758;SDS011;11041;50.854;20.580;2022-08-16T12:28:05;12.82;;;10.70;;
21758;SDS011;11041;50.854;20.580;2022-08-16T12:30:35;15.73;;;9.52;;
21758;SDS011;11041;50.854;20.580;2022-08-16T12:33:08;14.48;;;10.30;;
21758;SDS011;11041;50.854;20.580;2022-08-16T12:35:39;16.13;;;10.25;;
21758;SDS011;11041;50.854;20.580;2022-08-16T12:38:06;12.48;;;9.50;;
21758;SDS011;11041;50.854;20.580;2022-08-16T12:40:34;15.65;;;10.82;;
21758;SDS011;11041;50.854;20.580;2022-08-16T12:43:06;13.40;;;11.05;;
21758;SDS011;11041;50.854;20.580;2022-08-16T12:45:39;12.98;;;10.88;;
21758;SDS011;11041;50.854;20.580;2022-08-16T12:48:16;17.73;;;10.88;;
21758;SDS011;11041;50.854;20.580;2022-08-16T12:51:07;11.85;;;10.15;;
21758;SDS011;11041;50.854;20.580;2022-08-16T12:53:38;14.35;;;9.63;;
21758;SDS011;11041;50.854;20.580;2022-08-16T12:56:06;18.60;;;11.45;;
21758;SDS011;11041;50.854;20.580;2022-08-16T12:58:38;12.13;;;10.27;;
21758;SDS011;11041;50.854;20.580;2022-08-16T13:01:07;13.10;;;9.63;;
21758;SDS011;11041;50.854;20.580;2022-08-16T13:03:34;18.33;;;9.80;;
21758;SDS011;11041;50.854;20.580;2022-08-16T13:06:05;13.70;;;9.73;;
21758;SDS011;11041;50.854;20.580;2022-08-16T13:08:33;14.07;;;9.55;;
21758;SDS011;11041;50.854;20.580;2022-08-16T13:10:59;15.77;;;9.85;;
21758;SDS011;11041;50.854;20.580;2022-08-16T13:13:28;14.57;;;9.05;;
21758;SDS011;11041;50.854;20.580;2022-08-16T13:15:59;15.32;;;9.95;;
21758;SDS011;11041;50.854;20.580;2022-08-16T13:18:30;17.58;;;10.13;;
21758;SDS011;11041;50.854;20.580;2022-08-16T13:21:04;13.60;;;9.35;;
21758;SDS011;11041;50.854;20.580;2022-08-16T13:23:33;14.23;;;9.90;;
21758;SDS011;11041;50.854;20.580;2022-08-16T13:26:01;16.30;;;9.13;;
21758;SDS011;11041;50.854;20.580;2022-08-16T13:28:29;15.68;;;9.57;;
21758;SDS011;11041;50.854;20.580;2022-08-16T13:30:56;15.18;;;9.52;;
21758;SDS011;11041;50.854;20.580;2022-08-16T13:33:26;21.48;;;10.27;;
21758;SDS011;11041;50.854;20.580;2022-08-16T13:36:03;21.08;;;10.70;;
21758;SDS011;11041;50.854;20.580;2022-08-16T13:38:33;21.23;;;11.07;;
21758;SDS011;11041;50.854;20.580;2022-08-16T13:41:01;13.32;;;9.98;;
21758;SDS011;11041;50.854;20.580;2022-08-16T13:43:31;22.17;;;9.98;;
21758;SDS011;11041;50.854;20.580;2022-08-16T13:45:58;17.65;;;10.13;;
21758;SDS011;11041;50.854;20.580;2022-08-16T13:48:28;25.23;;;11.05;;
21758;SDS011;11041;50.854;20.580;2022-08-16T13:50:56;13.15;;;10.52;;
21758;SDS011;11041;50.854;20.580;2022-08-16T13:53:23;11.18;;;9.82;;
21758;SDS011;11041;50.854;20.580;2022-08-16T13:55:53;14.93;;;10.77;;
21758;SDS011;11041;50.854;20.580;2022-08-16T13:58:21;14.23;;;10.77;;
21758;SDS011;11041;50.854;20.580;2022-08-16T14:00:48;13.45;;;10.23;;
21758;SDS011;11041;50.854;20.580;2022-08-16T14:03:15;17.67;;;10.15;;
21758;SDS011;11041;50.854;20.580;2022-08-16T14:05:42;15.15;;;10.07;;
21758;SDS011;11041;50.854;20.580;2022-08-16T14:08:09;12.20;;;10.88;;
21758;SDS011;11041;50.854;20.580;2022-08-16T14:10:35;18.35;;;10.85;;
21758;SDS011;11041;50.854;20.580;2022-08-16T14:13:02;24.58;;;10.77;;
21758;SDS011;11041;50.854;20.580;2022-08-16T14:15:28;22.10;;;10.43;;
21758;SDS011;11041;50.854;20.580;2022-08-16T14:17:55;15.07;;;9.50;;
21758;SDS011;11041;50.854;20.580;2022-08-16T14:20:22;16.48;;;9.80;;
21758;SDS011;11041;50.854;20.580;2022-08-16T14:22:50;20.30;;;10.27;;
21758;SDS011;11041;50.854;20.580;2022-08-16T14:25:18;15.88;;;9.80;;
21758;SDS011;11041;50.854;20.580;2022-08-16T14:27:48;15.45;;;9.77;;
21758;SDS011;11041;50.854;20.580;2022-08-16T14:30:15;14.20;;;10.02;;
21758;SDS011;11041;50.854;20.580;2022-08-16T14:32:44;16.48;;;9.90;;
21758;SDS011;11041;50.854;20.580;2022-08-16T14:35:13;22.77;;;10.07;;
21758;SDS011;11041;50.854;20.580;2022-08-16T14:37:46;15.60;;;9.50;;
21758;SDS011;11041;50.854;20.580;2022-08-16T14:40:14;19.45;;;10.38;;
21758;SDS011;11041;50.854;20.580;2022-08-16T14:42:43;16.17;;;9.43;;
21758;SDS011;11041;50.854;20.580;2022-08-16T14:45:12;16.00;;;10.27;;
21758;SDS011;11041;50.854;20.580;2022-08-16T14:47:45;17.05;;;9.68;;
21758;SDS011;11041;50.854;20.580;2022-08-16T14:50:14;19.88;;;10.07;;
21758;SDS011;11041;50.854;20.580;2022-08-16T14:52:46;23.88;;;10.85;;
21758;SDS011;11041;50.854;20.580;2022-08-16T14:55:20;13.90;;;9.93;;
21758;SDS011;11041;50.854;20.580;2022-08-16T14:57:48;17.10;;;9.60;;
21758;SDS011;11041;50.854;20.580;2022-08-16T15:00:15;17.60;;;9.57;;
21758;SDS011;11041;50.854;20.580;2022-08-16T15:02:42;16.17;;;9.75;;
21758;SDS011;11041;50.854;20.580;2022-08-16T15:05:16;21.02;;;9.27;;
21758;SDS011;11041;50.854;20.580;2022-08-16T15:07:43;20.15;;;9.63;;
21758;SDS011;11041;50.854;20.580;2022-08-16T15:10:10;18.67;;;9.82;;
21758;SDS011;11041;50.854;20.580;2022-08-16T15:12:38;11.27;;;8.48;;
21758;SDS011;11041;50.854;20.580;2022-08-16T15:15:06;14.45;;;9.35;;
21758;SDS011;11041;50.854;20.580;2022-08-16T15:17:37;15.00;;;9.93;;
21758;SDS011;11041;50.854;20.580;2022-08-16T15:20:08;12.93;;;8.63;;
21758;SDS011;11041;50.854;20.580;2022-08-16T15:22:41;13.15;;;9.55;;
21758;SDS011;11041;50.854;20.580;2022-08-16T15:25:15;12.68;;;8.95;;
21758;SDS011;11041;50.854;20.580;2022-08-16T15:27:46;10.85;;;8.68;;
21758;SDS011;11041;50.854;20.580;2022-08-16T15:30:15;15.75;;;9.30;;
21758;SDS011;11041;50.854;20.580;2022-08-16T15:32:50;13.23;;;9.27;;
21758;SDS011;11041;50.854;20.580;2022-08-16T15:35:26;17.25;;;9.90;;
21758;SDS011;11041;50.854;20.580;2022-08-16T15:37:54;16.15;;;9.90;;
21758;SDS011;11041;50.854;20.580;2022-08-16T15:40:20;15.45;;;11.27;;
21758;SDS011;11041;50.854;20.580;2022-08-16T15:42:48;13.95;;;9.80;;
21758;SDS011;11041;50.854;20.580;2022-08-16T15:45:19;12.90;;;10.10;;
21758;SDS011;11041;50.854;20.580;2022-08-16T15:48:08;15.13;;;10.63;;
21758;SDS011;11041;50.854;20.580;2022-08-16T15:50:37;17.25;;;10.45;;
21758;SDS011;11041;50.854;20.580;2022-08-16T15:53:10;20.98;;;9.98;;
21758;SDS011;11041;50.854;20.580;2022-08-16T15:55:42;15.48;;;10.48;;
21758;SDS011;11041;50.854;20.580;2022-08-16T15:58:10;14.48;;;10.10;;
21758;SDS011;11041;50.854;20.580;2022-08-16T16:00:37;12.68;;;10.05;;
21758;SDS011;11041;50.854;20.580;2022-08-16T16:03:09;18.00;;;10.00;;
21758;SDS011;11041;50.854;20.580;2022-08-16T16:05:41;16.42;;;11.23;;